createdAt,value
2018-12-13T00:00:06.219Z,4.22
2018-12-13T00:02:34.376Z,3.72
2018-12-13T00:05:02.739Z,3.83
2018-12-13T00:07:30.635Z,3.70
2018-12-13T00:09:58.438Z,2.90
2018-12-13T00:12:26.381Z,3.08
2018-12-13T00:14:54.685Z,5.00
2018-12-13T00:17:23.075Z,3.40
2018-12-13T00:19:50.859Z,4.90
2018-12-13T00:22:19.478Z,3.25
2018-12-13T00:24:48.095Z,2.80
2018-12-13T00:27:16.123Z,2.70
2018-12-13T00:29:44.007Z,3.55
2018-12-13T00:32:11.550Z,2.65
2018-12-13T00:34:39.186Z,2.63
2018-12-13T00:37:07.099Z,3.95
2018-12-13T00:39:35.179Z,3.00
2018-12-13T00:42:03.527Z,3.72
2018-12-13T00:44:31.621Z,3.17
2018-12-13T00:46:59.503Z,2.70
2018-12-13T00:49:27.161Z,3.00
2018-12-13T00:51:54.998Z,4.08
2018-12-13T00:54:23.704Z,2.92
2018-12-13T00:56:51.759Z,4.37
2018-12-13T00:59:19.567Z,3.05
2018-12-13T01:01:47.712Z,2.47
2018-12-13T01:04:15.927Z,3.08
2018-12-13T01:06:46.128Z,2.92
2018-12-13T01:09:14.374Z,2.90
2018-12-13T01:11:42.342Z,2.00
2018-12-13T01:14:10.118Z,3.10
2018-12-13T01:16:37.572Z,2.75
2018-12-13T01:19:05.541Z,2.62
2018-12-13T01:21:33.950Z,2.20
2018-12-13T01:24:01.655Z,2.25
2018-12-13T01:26:29.883Z,2.70
2018-12-13T01:28:57.841Z,3.40
2018-12-13T01:31:25.999Z,3.12
2018-12-13T01:33:54.297Z,2.27
2018-12-13T01:36:22.995Z,2.57
2018-12-13T01:38:50.630Z,2.37
2018-12-13T01:41:19.081Z,3.00
2018-12-13T01:43:46.987Z,2.83
2018-12-13T01:46:14.716Z,2.35
2018-12-13T01:48:42.295Z,3.80
2018-12-13T01:51:10.278Z,2.60
2018-12-13T01:53:37.849Z,2.47
2018-12-13T01:56:05.592Z,3.22
2018-12-13T01:58:33.263Z,2.72
2018-12-13T02:01:01.512Z,2.47
2018-12-13T02:03:29.505Z,2.90
2018-12-13T02:05:57.107Z,2.33
2018-12-13T02:08:25.273Z,3.95
2018-12-13T02:10:52.705Z,2.70
2018-12-13T02:13:20.744Z,2.50
2018-12-13T02:15:48.342Z,2.00
2018-12-13T02:18:17.012Z,1.52
2018-12-13T02:20:44.573Z,2.40
2018-12-13T02:23:13.266Z,2.80
2018-12-13T02:25:41.644Z,3.25
2018-12-13T02:28:10.237Z,2.62
2018-12-13T02:30:38.557Z,2.08
2018-12-13T02:33:06.588Z,3.58
2018-12-13T02:35:33.989Z,2.37
2018-12-13T02:38:01.610Z,3.70
2018-12-13T02:40:29.501Z,2.12
2018-12-13T02:42:56.953Z,2.30
2018-12-13T02:45:24.927Z,2.62
2018-12-13T02:47:52.495Z,1.98
2018-12-13T02:50:20.522Z,2.12
2018-12-13T02:52:48.603Z,2.90
2018-12-13T02:55:16.494Z,6.12
2018-12-13T02:57:45.735Z,2.27
2018-12-13T03:00:13.860Z,1.70
2018-12-13T03:02:42.228Z,2.02
2018-12-13T03:05:09.977Z,2.30
2018-12-13T03:07:38.064Z,1.82
2018-12-13T03:10:06.337Z,2.15
2018-12-13T03:12:34.168Z,2.50
2018-12-13T03:15:01.662Z,1.92
2018-12-13T03:17:29.687Z,1.70
2018-12-13T03:19:57.189Z,1.67
2018-12-13T03:22:24.743Z,2.35
2018-12-13T03:24:52.465Z,3.25
2018-12-13T03:27:20.141Z,1.72
2018-12-13T03:29:47.875Z,2.83
2018-12-13T03:32:15.799Z,1.95
2018-12-13T03:34:43.378Z,2.00
2018-12-13T03:37:11.076Z,2.40
2018-12-13T03:39:40.030Z,1.80
2018-12-13T03:42:07.792Z,2.75
2018-12-13T03:44:35.758Z,2.20
2018-12-13T03:47:03.739Z,1.57
2018-12-13T03:49:31.490Z,1.72
2018-12-13T03:51:59.429Z,1.90
2018-12-13T03:54:27.304Z,2.40
2018-12-13T03:56:55.467Z,2.20
2018-12-13T03:59:23.639Z,4.20
2018-12-13T04:01:51.547Z,1.92
2018-12-13T04:04:19.210Z,2.37
2018-12-13T04:06:46.834Z,3.92
2018-12-13T04:09:14.754Z,1.80
2018-12-13T04:11:42.501Z,1.17
2018-12-13T04:14:10.574Z,2.00
2018-12-13T04:16:38.306Z,3.17
2018-12-13T04:19:05.791Z,1.70
2018-12-13T04:21:33.966Z,1.77
2018-12-13T04:24:02.864Z,2.27
2018-12-13T04:26:30.730Z,2.10
2018-12-13T04:28:58.397Z,2.00
2018-12-13T04:31:26.050Z,2.58
2018-12-13T04:33:53.789Z,1.70
2018-12-13T04:36:21.278Z,2.08
2018-12-13T04:38:49.149Z,3.58
2018-12-13T04:41:17.066Z,1.20
2018-12-13T04:43:44.650Z,1.70
2018-12-13T04:46:12.447Z,2.20
2018-12-13T04:48:40.523Z,2.17
2018-12-13T04:51:08.270Z,2.25
2018-12-13T04:53:35.814Z,2.55
2018-12-13T04:56:03.386Z,2.67
2018-12-13T04:58:31.579Z,2.47
2018-12-13T05:00:59.454Z,1.65
2018-12-13T05:03:26.890Z,1.47
2018-12-13T05:05:54.366Z,2.12
2018-12-13T05:08:22.010Z,1.90
2018-12-13T05:10:55.123Z,2.47
2018-12-13T05:13:23.073Z,1.67
2018-12-13T05:15:50.769Z,2.00
2018-12-13T05:18:18.294Z,3.33
2018-12-13T05:20:45.930Z,1.40
2018-12-13T05:23:14.144Z,2.40
2018-12-13T05:25:43.139Z,2.05
2018-12-13T05:28:10.749Z,2.33
2018-12-13T05:30:38.657Z,2.20
2018-12-13T05:33:06.561Z,2.00
2018-12-13T05:35:34.498Z,1.65
2018-12-13T05:38:02.474Z,1.42
2018-12-13T05:40:30.445Z,2.08
2018-12-13T05:42:58.893Z,1.90
2018-12-13T05:45:27.287Z,1.30
2018-12-13T05:49:13.518Z,2.25
2018-12-13T05:51:42.562Z,2.10
2018-12-13T05:54:10.225Z,2.42
2018-12-13T05:56:38.118Z,2.17
2018-12-13T05:59:06.995Z,3.50
2018-12-13T06:01:34.940Z,1.25
2018-12-13T06:04:02.358Z,1.50
2018-12-13T06:06:29.791Z,1.95
2018-12-13T06:08:57.614Z,2.87
2018-12-13T06:11:25.776Z,5.73
2018-12-13T06:13:53.410Z,3.08
2018-12-13T06:16:20.822Z,1.60
2018-12-13T06:18:48.441Z,1.45
2018-12-13T06:21:15.947Z,3.80
2018-12-13T06:23:43.346Z,2.17
2018-12-13T06:26:10.751Z,2.20
2018-12-13T06:28:39.251Z,1.82
2018-12-13T06:31:07.243Z,2.30
2018-12-13T06:33:35.282Z,2.50
2018-12-13T06:36:02.981Z,2.35
2018-12-13T06:38:30.841Z,3.00
2018-12-13T06:40:59.022Z,2.40
2018-12-13T06:43:26.898Z,3.30
2018-12-13T06:45:54.666Z,3.22
2018-12-13T06:48:22.350Z,2.58
2018-12-13T06:50:49.925Z,1.80
2018-12-13T06:53:17.314Z,2.52
2018-12-13T06:55:45.001Z,2.90
2018-12-13T06:58:13.279Z,2.75
2018-12-13T07:00:41.247Z,1.60
2018-12-13T07:03:09.098Z,2.10
2018-12-13T07:05:36.785Z,1.80
2018-12-13T07:08:07.810Z,1.90
2018-12-13T07:10:35.561Z,3.50
2018-12-13T07:13:03.451Z,3.30
2018-12-13T07:15:30.972Z,2.20
2018-12-13T07:17:58.774Z,2.00
2018-12-13T07:20:26.315Z,1.95
2018-12-13T07:22:54.293Z,2.42
2018-12-13T07:25:21.855Z,2.15
2018-12-13T07:27:49.730Z,4.93
2018-12-13T07:30:17.675Z,3.08
2018-12-13T07:32:45.567Z,3.17
2018-12-13T07:35:13.329Z,2.80
2018-12-13T07:37:41.308Z,2.87
2018-12-13T07:40:08.999Z,3.92
2018-12-13T07:42:36.819Z,2.80
2018-12-13T07:45:04.664Z,4.72
2018-12-13T07:47:33.257Z,2.62
2018-12-13T07:50:01.117Z,2.62
2018-12-13T07:52:29.930Z,2.98
2018-12-13T07:54:57.614Z,3.70
2018-12-13T07:57:25.025Z,2.50
2018-12-13T07:59:53.274Z,3.98
2018-12-13T08:02:21.680Z,3.30
2018-12-13T08:04:49.273Z,3.80
2018-12-13T08:07:16.809Z,3.27
2018-12-13T08:09:44.357Z,4.55
2018-12-13T08:12:11.851Z,5.20
2018-12-13T08:14:39.284Z,3.47
2018-12-13T08:17:06.897Z,2.58
2018-12-13T08:19:35.494Z,3.02
2018-12-13T08:22:03.903Z,15.20
2018-12-13T08:24:31.702Z,5.35
2018-12-13T08:26:59.496Z,5.10
2018-12-13T08:29:27.200Z,3.77
2018-12-13T08:31:54.733Z,3.90
2018-12-13T08:34:22.547Z,3.58
2018-12-13T08:36:50.107Z,7.40
2018-12-13T08:39:18.262Z,4.58
2018-12-13T08:41:45.632Z,3.25
2018-12-13T08:44:13.213Z,3.62
2018-12-13T08:46:40.534Z,3.42
2018-12-13T08:49:08.523Z,4.00
2018-12-13T08:51:35.917Z,4.03
2018-12-13T08:54:03.700Z,3.08
2018-12-13T08:56:31.031Z,3.90
2018-12-13T08:58:58.638Z,3.62
2018-12-13T09:01:26.214Z,3.77
2018-12-13T09:03:54.511Z,3.08
2018-12-13T09:06:22.771Z,25.63
2018-12-13T09:08:50.624Z,21.42
2018-12-13T09:11:17.985Z,16.85
2018-12-13T09:13:45.556Z,20.97
2018-12-13T09:16:13.532Z,12.88
2018-12-13T09:18:41.606Z,18.67
2018-12-13T09:21:09.383Z,14.13
2018-12-13T09:23:37.132Z,18.77
2018-12-13T09:26:04.699Z,6.70
2018-12-13T09:28:32.164Z,5.60
2018-12-13T09:30:59.583Z,5.28
2018-12-13T09:33:27.262Z,7.20
2018-12-13T09:35:55.748Z,5.42
2018-12-13T09:38:23.139Z,4.45
2018-12-13T09:40:50.886Z,7.10
2018-12-13T09:43:18.235Z,5.50
2018-12-13T09:45:46.270Z,5.50
2018-12-13T09:48:13.551Z,5.80
2018-12-13T09:50:40.894Z,7.83
2018-12-13T09:53:08.983Z,4.15
2018-12-13T09:55:36.534Z,3.90
2018-12-13T09:58:03.913Z,3.67
2018-12-13T10:00:31.257Z,4.92
2018-12-13T10:02:58.912Z,4.42
2018-12-13T10:05:26.207Z,3.58
2018-12-13T10:07:53.527Z,3.27
2018-12-13T10:10:21.139Z,4.53
2018-12-13T10:12:49.246Z,4.40
2018-12-13T10:15:17.587Z,6.30
2018-12-13T10:17:45.240Z,5.40
2018-12-13T10:20:12.606Z,5.85
2018-12-13T10:22:39.955Z,4.25
2018-12-13T10:25:07.308Z,4.40
2018-12-13T10:27:34.666Z,4.00
2018-12-13T10:30:02.276Z,5.83
2018-12-13T10:32:29.625Z,4.78
2018-12-13T10:34:57.028Z,3.25
2018-12-13T10:37:24.311Z,4.30
2018-12-13T10:39:52.569Z,5.12
2018-12-13T10:42:21.516Z,3.92
2018-12-13T10:44:49.143Z,3.15
2018-12-13T10:47:17.284Z,2.87
2018-12-13T10:49:45.116Z,3.40
2018-12-13T10:52:12.550Z,4.40
2018-12-13T10:54:40.233Z,3.92
2018-12-13T10:57:07.916Z,6.12
2018-12-13T10:59:35.759Z,4.62
2018-12-13T11:02:05.822Z,5.60
2018-12-13T11:04:33.373Z,5.47
2018-12-13T11:07:00.812Z,3.20
2018-12-13T11:09:28.921Z,3.58
2018-12-13T11:11:56.631Z,4.10
2018-12-13T11:14:24.217Z,3.10
2018-12-13T11:16:52.070Z,2.80
2018-12-13T11:19:20.226Z,2.50
2018-12-13T11:21:48.528Z,3.12
2018-12-13T11:24:16.738Z,2.60
2018-12-13T11:26:45.338Z,2.92
2018-12-13T11:29:18.689Z,3.62
2018-12-13T11:31:46.111Z,4.80
2018-12-13T11:34:14.023Z,5.60
2018-12-13T11:36:42.080Z,6.20
2018-12-13T11:39:09.954Z,3.50
2018-12-13T11:41:37.639Z,8.53
2018-12-13T11:44:05.583Z,7.20
2018-12-13T11:46:33.199Z,5.30
2018-12-13T11:49:01.010Z,5.42
2018-12-13T11:51:28.767Z,3.80
2018-12-13T11:53:56.764Z,5.70
2018-12-13T11:56:24.732Z,8.00
2018-12-13T11:58:53.048Z,5.90
2018-12-13T12:01:20.630Z,3.90
2018-12-13T12:03:48.322Z,4.33
2018-12-13T12:06:15.727Z,4.50
2018-12-13T12:08:44.297Z,3.98
2018-12-13T12:11:12.113Z,4.50
2018-12-13T12:13:39.788Z,5.37
2018-12-13T12:16:07.334Z,3.77
2018-12-13T12:18:34.802Z,4.22
2018-12-13T12:21:02.289Z,6.78
2018-12-13T12:23:31.257Z,4.47
2018-12-13T12:25:58.657Z,4.90
2018-12-13T12:28:26.431Z,4.00
2018-12-13T12:30:55.503Z,4.08
2018-12-13T12:33:23.046Z,4.17
2018-12-13T12:35:50.953Z,7.37
2018-12-13T12:38:18.488Z,6.65
2018-12-13T12:40:46.846Z,4.85
2018-12-13T12:43:14.701Z,4.00
2018-12-13T12:45:43.278Z,4.70
2018-12-13T12:48:10.739Z,4.10
2018-12-13T12:50:38.314Z,4.50
2018-12-13T12:53:06.742Z,6.55
2018-12-13T12:55:34.622Z,4.17
2018-12-13T12:58:02.606Z,4.50
2018-12-13T13:00:30.999Z,4.28
2018-12-13T13:02:59.251Z,4.07
2018-12-13T13:05:27.475Z,4.60
2018-12-13T13:07:55.028Z,5.22
2018-12-13T13:10:22.659Z,6.40
2018-12-13T13:12:50.325Z,5.40
2018-12-13T13:15:17.806Z,5.80
2018-12-13T13:17:45.397Z,5.42
2018-12-13T13:20:13.219Z,5.55
2018-12-13T13:22:40.874Z,5.67
2018-12-13T13:25:08.718Z,5.30
2018-12-13T13:27:36.214Z,4.80
2018-12-13T13:30:04.490Z,5.60
2018-12-13T13:32:32.150Z,6.62
2018-12-13T13:35:00.120Z,5.37
2018-12-13T13:37:28.600Z,8.40
2018-12-13T13:39:56.364Z,5.35
2018-12-13T13:42:24.432Z,6.00
2018-12-13T13:44:57.105Z,6.90
2018-12-13T13:47:25.382Z,5.93
2018-12-13T13:49:53.050Z,6.85
2018-12-13T13:52:20.689Z,6.55
2018-12-13T13:54:49.060Z,6.42
2018-12-13T13:57:16.507Z,5.30
2018-12-13T13:59:44.159Z,5.72
2018-12-13T14:02:11.670Z,6.97
2018-12-13T14:04:39.400Z,7.15
2018-12-13T14:07:07.406Z,5.47
2018-12-13T14:09:38.127Z,7.85
2018-12-13T14:12:06.076Z,5.30
2018-12-13T14:14:34.189Z,6.10
2018-12-13T14:17:02.220Z,5.53
2018-12-13T14:19:31.446Z,6.22
2018-12-13T14:21:59.923Z,5.28
2018-12-13T14:24:28.076Z,6.40
2018-12-13T14:26:56.671Z,7.07
2018-12-13T14:29:25.906Z,6.30
2018-12-13T14:31:54.147Z,6.20
2018-12-13T14:34:21.806Z,6.20
2018-12-13T14:36:49.604Z,7.60
2018-12-13T14:39:17.482Z,6.78
2018-12-13T14:41:45.206Z,8.58
2018-12-13T14:44:12.624Z,6.00
2018-12-13T14:46:41.020Z,6.75
2018-12-13T14:49:08.470Z,6.65
2018-12-13T14:51:36.171Z,6.83
2018-12-13T14:54:04.492Z,6.73
2018-12-13T14:56:32.172Z,7.12
2018-12-13T14:59:00.709Z,6.90
2018-12-13T15:01:28.270Z,6.40
2018-12-13T15:03:56.490Z,6.95
2018-12-13T15:06:24.519Z,7.17
2018-12-13T15:08:52.454Z,6.40
2018-12-13T15:11:21.076Z,7.20
2018-12-13T15:13:48.726Z,7.10
2018-12-13T15:16:17.290Z,6.30
2018-12-13T15:18:44.971Z,6.58
2018-12-13T15:21:12.573Z,6.12
2018-12-13T15:23:40.478Z,6.10
2018-12-13T15:26:08.270Z,7.40
2018-12-13T15:28:36.207Z,6.62
2018-12-13T15:31:04.608Z,6.20
2018-12-13T15:33:36.907Z,6.75
2018-12-13T15:36:04.497Z,8.28
2018-12-13T15:38:32.096Z,7.20
2018-12-13T15:40:59.373Z,8.60
2018-12-13T15:43:26.753Z,7.78
2018-12-13T15:45:54.427Z,9.03
2018-12-13T15:48:22.787Z,8.83
2018-12-13T15:50:50.173Z,7.75
2018-12-13T15:53:17.549Z,7.63
2018-12-13T15:55:45.127Z,8.05
2018-12-13T15:58:12.475Z,6.50
2018-12-13T16:00:40.131Z,6.70
2018-12-13T16:03:07.732Z,7.67
2018-12-13T16:05:35.061Z,7.55
2018-12-13T16:08:02.377Z,7.53
2018-12-13T16:10:30.322Z,7.70
2018-12-13T16:12:57.637Z,7.40
2018-12-13T16:15:25.214Z,8.65
2018-12-13T16:17:53.177Z,9.30
2018-12-13T16:20:20.493Z,8.47
2018-12-13T16:22:48.187Z,9.35
2018-12-13T16:25:16.060Z,9.50
2018-12-13T16:27:43.725Z,8.35
2018-12-13T16:30:11.074Z,6.17
2018-12-13T16:32:39.114Z,8.60
2018-12-13T16:35:06.461Z,7.00
2018-12-13T16:37:34.361Z,5.72
2018-12-13T16:40:01.819Z,6.58
2018-12-13T16:42:29.195Z,7.72
2018-12-13T16:44:56.876Z,9.00
2018-12-13T16:47:24.227Z,8.35
2018-12-13T16:49:51.855Z,6.73
2018-12-13T16:52:19.391Z,6.65
2018-12-13T16:54:46.742Z,7.40
2018-12-13T16:57:14.058Z,6.40
2018-12-13T16:59:41.431Z,6.25
2018-12-13T17:02:09.351Z,6.30
2018-12-13T17:04:36.728Z,6.78
2018-12-13T17:07:04.265Z,6.45
2018-12-13T17:09:31.823Z,7.42
2018-12-13T17:11:59.156Z,7.55
2018-12-13T17:14:26.519Z,7.37
2018-12-13T17:16:53.891Z,5.78
2018-12-13T17:19:21.765Z,5.75
2018-12-13T17:21:50.342Z,6.40
2018-12-13T17:24:18.012Z,6.45
2018-12-13T17:26:45.392Z,6.80
2018-12-13T17:29:12.732Z,7.20
2018-12-13T17:31:40.003Z,6.28
2018-12-13T17:34:07.656Z,6.00
2018-12-13T17:36:34.960Z,5.58
2018-12-13T17:39:02.651Z,8.25
2018-12-13T17:41:30.417Z,5.50
2018-12-13T17:43:58.063Z,7.53
2018-12-13T17:46:25.423Z,7.40
2018-12-13T17:48:53.239Z,5.28
2018-12-13T17:51:20.862Z,5.22
2018-12-13T17:53:48.310Z,5.70
2018-12-13T17:56:16.214Z,6.15
2018-12-13T17:58:43.952Z,4.50
2018-12-13T18:01:11.258Z,5.60
2018-12-13T18:03:38.652Z,4.42
2018-12-13T18:06:06.226Z,4.75
2018-12-13T18:08:33.884Z,5.70
2018-12-13T18:11:01.925Z,4.87
2018-12-13T18:13:29.280Z,5.10
2018-12-13T18:15:56.985Z,4.35
2018-12-13T18:18:24.684Z,4.20
2018-12-13T18:20:52.066Z,4.60
2018-12-13T18:23:19.655Z,4.92
2018-12-13T18:25:47.319Z,5.37
2018-12-13T18:28:14.672Z,4.58
2018-12-13T18:30:42.643Z,4.72
2018-12-13T18:33:09.969Z,6.00
2018-12-13T18:35:37.655Z,4.47
2018-12-13T18:38:05.027Z,4.10
2018-12-13T18:40:35.604Z,4.72
2018-12-13T18:43:02.476Z,4.00
2018-12-13T18:45:34.151Z,4.90
2018-12-13T18:48:01.962Z,4.67
2018-12-13T18:50:29.285Z,5.80
2018-12-13T18:52:57.225Z,4.40
2018-12-13T18:55:24.593Z,4.65
2018-12-13T18:57:51.920Z,4.15
2018-12-13T19:00:19.637Z,5.00
2018-12-13T19:02:47.580Z,4.33
2018-12-13T19:05:15.459Z,5.97
2018-12-13T19:07:42.999Z,4.20
2018-12-13T19:10:10.585Z,5.20
2018-12-13T19:12:38.015Z,3.37
2018-12-13T19:15:06.119Z,3.77
2018-12-13T19:17:33.915Z,4.80
2018-12-13T19:20:01.251Z,4.08
2018-12-13T19:22:29.156Z,3.33
2018-12-13T19:24:57.028Z,3.90
2018-12-13T19:27:25.176Z,3.00
2018-12-13T19:29:52.479Z,3.40
2018-12-13T19:32:19.950Z,3.55
2018-12-13T19:34:47.312Z,4.08
2018-12-13T19:37:14.713Z,2.80
2018-12-13T19:39:42.313Z,3.33
2018-12-13T19:42:09.708Z,3.60
2018-12-13T19:44:37.291Z,3.77
2018-12-13T19:47:05.139Z,5.42
2018-12-13T19:49:32.456Z,4.30
2018-12-13T19:51:59.799Z,4.92
2018-12-13T19:54:27.764Z,4.20
2018-12-13T19:56:55.425Z,4.30
2018-12-13T19:59:23.021Z,4.30
2018-12-13T20:01:50.864Z,4.87
2018-12-13T20:04:18.241Z,5.78
2018-12-13T20:06:45.883Z,4.47
2018-12-13T20:09:13.541Z,3.55
2018-12-13T20:11:41.212Z,4.33
2018-12-13T20:14:08.845Z,3.50
2018-12-13T20:16:37.014Z,3.67
2018-12-13T20:19:04.981Z,4.45
2018-12-13T20:21:33.147Z,3.92
2018-12-13T20:24:00.805Z,5.25
2018-12-13T20:26:28.239Z,10.00
2018-12-13T20:28:56.348Z,39.88
2018-12-13T20:31:23.908Z,36.58
2018-12-13T20:33:51.305Z,37.65
2018-12-13T20:36:19.746Z,25.10
2018-12-13T20:38:48.228Z,14.93
2018-12-13T20:41:16.301Z,5.55
2018-12-13T20:43:44.167Z,3.70
2018-12-13T20:46:12.034Z,3.65
2018-12-13T20:48:39.700Z,3.80
2018-12-13T20:51:07.040Z,3.30
2018-12-13T20:53:34.818Z,3.37
2018-12-13T20:56:02.727Z,3.70
2018-12-13T20:58:30.492Z,4.30
2018-12-13T21:00:58.672Z,6.72
2018-12-13T21:03:26.033Z,3.70
2018-12-13T21:05:53.387Z,4.15
2018-12-13T21:08:20.748Z,3.90
2018-12-13T21:10:48.348Z,4.50
2018-12-13T21:13:15.676Z,3.97
2018-12-13T21:15:43.369Z,4.00
2018-12-13T21:18:10.717Z,3.70
2018-12-13T21:20:38.089Z,3.90
2018-12-13T21:23:05.960Z,4.03
2018-12-13T21:25:33.862Z,3.75
2018-12-13T21:28:01.249Z,4.45
2018-12-13T21:30:28.735Z,13.80
2018-12-13T21:32:56.229Z,10.98
2018-12-13T21:35:23.535Z,10.10
2018-12-13T21:37:50.933Z,12.68
2018-12-13T21:40:18.693Z,9.23
2018-12-13T21:42:46.767Z,6.50
2018-12-13T21:45:14.432Z,8.08
2018-12-13T21:47:41.821Z,7.30
2018-12-13T21:50:09.197Z,5.25
2018-12-13T21:52:36.844Z,3.85
2018-12-13T21:55:04.562Z,3.65
2018-12-13T21:57:32.178Z,7.35
2018-12-13T22:00:00.675Z,3.90
2018-12-13T22:02:28.579Z,4.85
2018-12-13T22:04:56.754Z,4.05
2018-12-13T22:07:24.384Z,4.80
2018-12-13T22:09:51.979Z,4.12
2018-12-13T22:12:19.297Z,3.97
2018-12-13T22:14:47.180Z,3.90
2018-12-13T22:17:14.841Z,4.30
2018-12-13T22:19:42.474Z,3.87
2018-12-13T22:22:10.617Z,5.20
2018-12-13T22:24:38.269Z,4.03
2018-12-13T22:27:05.578Z,3.90
2018-12-13T22:29:32.916Z,4.03
2018-12-13T22:32:00.826Z,5.30
2018-12-13T22:34:28.522Z,4.60
2018-12-13T22:36:56.467Z,4.47
2018-12-13T22:39:23.774Z,4.17
2018-12-13T22:41:51.372Z,3.70
2018-12-13T22:44:19.087Z,4.90
2018-12-13T22:46:46.508Z,3.72
2018-12-13T22:49:14.372Z,4.20
2018-12-13T22:51:41.715Z,4.20
2018-12-13T22:54:09.690Z,4.50
2018-12-13T22:56:37.356Z,4.30
2018-12-13T22:59:04.981Z,4.53
2018-12-13T23:01:32.788Z,4.70
2018-12-13T23:04:00.145Z,5.45
2018-12-13T23:06:27.656Z,4.22
2018-12-13T23:08:55.466Z,4.83
2018-12-13T23:11:22.820Z,5.25
2018-12-13T23:13:50.176Z,5.05
2018-12-13T23:16:17.520Z,5.30
2018-12-13T23:18:45.609Z,4.92
2018-12-13T23:21:13.429Z,4.55
2018-12-13T23:23:41.130Z,5.10
2018-12-13T23:26:08.865Z,4.80
2018-12-13T23:28:36.175Z,5.30
2018-12-13T23:31:04.115Z,5.03
2018-12-13T23:33:31.784Z,5.55
2018-12-13T23:35:59.324Z,5.20
2018-12-13T23:38:26.827Z,5.72
2018-12-13T23:40:54.243Z,4.50
2018-12-13T23:43:21.643Z,5.80
2018-12-13T23:45:49.142Z,5.78
2018-12-13T23:48:16.464Z,7.13
2018-12-13T23:50:44.390Z,8.00
2018-12-13T23:53:12.259Z,6.62
2018-12-13T23:55:39.978Z,7.60
2018-12-13T23:58:07.363Z,7.10
